sensor_id;sensor_type;location;lat;lon;timestamp;P1;durP1;ratioP1;P2;durP2;ratioP2
908;SDS011;441;51.192;6.788;2023-07-31T00:01:55;21.17;;;20.37;;
908;SDS011;441;51.192;6.788;2023-07-31T00:04:22;21.83;;;20.90;;
908;SDS011;441;51.192;6.788;2023-07-31T00:06:50;20.77;;;19.80;;
908;SDS011;441;51.192;6.788;2023-07-31T00:09:17;20.63;;;19.83;;
908;SDS011;441;51.192;6.788;2023-07-31T00:11:44;23.13;;;21.83;;
908;SDS011;441;51.192;6.788;2023-07-31T00:14:11;22.53;;;21.63;;
908;SDS011;441;51.192;6.788;2023-07-31T00:16:38;21.30;;;20.07;;
908;SDS011;441;51.192;6.788;2023-07-31T00:19:05;20.73;;;19.80;;
908;SDS011;441;51.192;6.788;2023-07-31T00:21:31;21.17;;;20.17;;
908;SDS011;441;51.192;6.788;2023-07-31T00:24:00;20.30;;;19.37;;
908;SDS011;441;51.192;6.788;2023-07-31T00:26:27;21.90;;;20.83;;
908;SDS011;441;51.192;6.788;2023-07-31T00:28:53;23.00;;;21.90;;
908;SDS011;441;51.192;6.788;2023-07-31T00:31:20;21.27;;;20.37;;
908;SDS011;441;51.192;6.788;2023-07-31T00:33:47;23.23;;;21.80;;
908;SDS011;441;51.192;6.788;2023-07-31T00:36:14;22.20;;;21.00;;
908;SDS011;441;51.192;6.788;2023-07-31T00:38:42;21.50;;;20.33;;
908;SDS011;441;51.192;6.788;2023-07-31T00:41:11;21.17;;;19.97;;
908;SDS011;441;51.192;6.788;2023-07-31T00:43:38;21.87;;;20.87;;
908;SDS011;441;51.192;6.788;2023-07-31T00:46:05;22.10;;;21.10;;
908;SDS011;441;51.192;6.788;2023-07-31T00:48:33;22.60;;;21.70;;
908;SDS011;441;51.192;6.788;2023-07-31T00:51:01;21.47;;;20.43;;
908;SDS011;441;51.192;6.788;2023-07-31T00:53:27;22.37;;;21.57;;
908;SDS011;441;51.192;6.788;2023-07-31T00:55:55;21.40;;;20.50;;
908;SDS011;441;51.192;6.788;2023-07-31T00:58:23;21.53;;;20.57;;
908;SDS011;441;51.192;6.788;2023-07-31T01:00:50;21.60;;;20.50;;
908;SDS011;441;51.192;6.788;2023-07-31T01:03:17;20.33;;;19.23;;
908;SDS011;441;51.192;6.788;2023-07-31T01:05:47;21.03;;;20.23;;
908;SDS011;441;51.192;6.788;2023-07-31T01:08:32;22.77;;;21.00;;
908;SDS011;441;51.192;6.788;2023-07-31T01:11:07;21.13;;;20.20;;
908;SDS011;441;51.192;6.788;2023-07-31T01:13:43;20.67;;;19.77;;
908;SDS011;441;51.192;6.788;2023-07-31T01:16:11;21.53;;;19.63;;
908;SDS011;441;51.192;6.788;2023-07-31T01:18:38;22.00;;;20.80;;
908;SDS011;441;51.192;6.788;2023-07-31T01:21:10;22.10;;;21.03;;
908;SDS011;441;51.192;6.788;2023-07-31T01:23:53;22.97;;;21.70;;
908;SDS011;441;51.192;6.788;2023-07-31T01:26:37;21.73;;;20.63;;
908;SDS011;441;51.192;6.788;2023-07-31T01:29:07;22.10;;;20.90;;
908;SDS011;441;51.192;6.788;2023-07-31T01:31:37;22.77;;;21.87;;
908;SDS011;441;51.192;6.788;2023-07-31T01:34:08;23.87;;;21.90;;
908;SDS011;441;51.192;6.788;2023-07-31T01:36:36;23.10;;;22.13;;
908;SDS011;441;51.192;6.788;2023-07-31T01:39:03;21.83;;;20.93;;
908;SDS011;441;51.192;6.788;2023-07-31T01:41:30;22.90;;;21.63;;
908;SDS011;441;51.192;6.788;2023-07-31T01:43:58;22.70;;;21.17;;
908;SDS011;441;51.192;6.788;2023-07-31T01:46:25;21.73;;;20.83;;
908;SDS011;441;51.192;6.788;2023-07-31T01:48:52;22.13;;;20.87;;
908;SDS011;441;51.192;6.788;2023-07-31T01:51:18;22.87;;;21.30;;
908;SDS011;441;51.192;6.788;2023-07-31T01:53:45;22.20;;;21.30;;
908;SDS011;441;51.192;6.788;2023-07-31T01:56:12;22.40;;;21.20;;
908;SDS011;441;51.192;6.788;2023-07-31T01:58:39;21.00;;;20.10;;
908;SDS011;441;51.192;6.788;2023-07-31T02:01:07;21.87;;;20.97;;
908;SDS011;441;51.192;6.788;2023-07-31T02:03:34;23.27;;;21.97;;
908;SDS011;441;51.192;6.788;2023-07-31T02:06:01;21.60;;;20.70;;
908;SDS011;441;51.192;6.788;2023-07-31T02:08:28;23.00;;;22.10;;
908;SDS011;441;51.192;6.788;2023-07-31T02:10:55;23.23;;;22.17;;
908;SDS011;441;51.192;6.788;2023-07-31T02:13:22;23.07;;;21.97;;
908;SDS011;441;51.192;6.788;2023-07-31T02:15:49;25.27;;;23.80;;
908;SDS011;441;51.192;6.788;2023-07-31T02:18:18;21.80;;;20.80;;
908;SDS011;441;51.192;6.788;2023-07-31T02:20:48;23.20;;;21.90;;
908;SDS011;441;51.192;6.788;2023-07-31T02:23:16;23.23;;;22.37;;
908;SDS011;441;51.192;6.788;2023-07-31T02:25:43;23.40;;;22.43;;
908;SDS011;441;51.192;6.788;2023-07-31T02:28:09;23.97;;;22.20;;
908;SDS011;441;51.192;6.788;2023-07-31T02:30:36;23.53;;;22.07;;
908;SDS011;441;51.192;6.788;2023-07-31T02:33:03;23.07;;;21.97;;
908;SDS011;441;51.192;6.788;2023-07-31T02:35:32;22.57;;;21.37;;
908;SDS011;441;51.192;6.788;2023-07-31T02:37:59;26.50;;;25.30;;
908;SDS011;441;51.192;6.788;2023-07-31T02:40:26;24.87;;;23.83;;
908;SDS011;441;51.192;6.788;2023-07-31T02:42:52;21.93;;;20.93;;
908;SDS011;441;51.192;6.788;2023-07-31T02:45:19;22.77;;;21.87;;
908;SDS011;441;51.192;6.788;2023-07-31T02:47:46;22.70;;;21.70;;
908;SDS011;441;51.192;6.788;2023-07-31T02:50:13;21.77;;;20.87;;
908;SDS011;441;51.192;6.788;2023-07-31T02:52:41;22.80;;;21.40;;
908;SDS011;441;51.192;6.788;2023-07-31T02:55:08;22.60;;;21.60;;
908;SDS011;441;51.192;6.788;2023-07-31T02:57:35;24.27;;;22.70;;
908;SDS011;441;51.192;6.788;2023-07-31T03:00:02;23.37;;;22.33;;
908;SDS011;441;51.192;6.788;2023-07-31T03:02:31;24.57;;;23.30;;
908;SDS011;441;51.192;6.788;2023-07-31T03:04:58;23.90;;;23.00;;
908;SDS011;441;51.192;6.788;2023-07-31T03:07:25;24.50;;;23.30;;
908;SDS011;441;51.192;6.788;2023-07-31T03:09:53;23.70;;;22.80;;
908;SDS011;441;51.192;6.788;2023-07-31T03:12:20;24.67;;;23.37;;
908;SDS011;441;51.192;6.788;2023-07-31T03:14:47;22.97;;;22.07;;
908;SDS011;441;51.192;6.788;2023-07-31T03:17:14;24.20;;;23.20;;
908;SDS011;441;51.192;6.788;2023-07-31T03:19:41;23.60;;;22.67;;
908;SDS011;441;51.192;6.788;2023-07-31T03:22:08;22.97;;;22.00;;
908;SDS011;441;51.192;6.788;2023-07-31T03:24:35;22.50;;;21.53;;
908;SDS011;441;51.192;6.788;2023-07-31T03:27:04;24.80;;;23.50;;
908;SDS011;441;51.192;6.788;2023-07-31T03:29:31;25.70;;;23.60;;
908;SDS011;441;51.192;6.788;2023-07-31T03:31:58;21.97;;;21.07;;
908;SDS011;441;51.192;6.788;2023-07-31T03:34:25;24.57;;;23.47;;
908;SDS011;441;51.192;6.788;2023-07-31T03:36:52;23.63;;;22.33;;
908;SDS011;441;51.192;6.788;2023-07-31T03:39:19;23.40;;;22.40;;
908;SDS011;441;51.192;6.788;2023-07-31T03:41:46;23.93;;;23.00;;
908;SDS011;441;51.192;6.788;2023-07-31T03:44:14;24.90;;;23.73;;
908;SDS011;441;51.192;6.788;2023-07-31T03:46:41;24.60;;;23.30;;
908;SDS011;441;51.192;6.788;2023-07-31T03:49:08;22.90;;;22.10;;
908;SDS011;441;51.192;6.788;2023-07-31T03:51:35;24.07;;;22.70;;
908;SDS011;441;51.192;6.788;2023-07-31T03:54:02;24.50;;;23.57;;
908;SDS011;441;51.192;6.788;2023-07-31T03:56:29;22.80;;;21.70;;
908;SDS011;441;51.192;6.788;2023-07-31T03:58:56;21.93;;;20.63;;
908;SDS011;441;51.192;6.788;2023-07-31T04:01:24;25.67;;;24.40;;
908;SDS011;441;51.192;6.788;2023-07-31T04:03:52;25.17;;;23.87;;
908;SDS011;441;51.192;6.788;2023-07-31T04:06:19;25.60;;;24.70;;
908;SDS011;441;51.192;6.788;2023-07-31T04:08:46;28.17;;;26.87;;
908;SDS011;441;51.192;6.788;2023-07-31T04:11:13;25.23;;;24.23;;
908;SDS011;441;51.192;6.788;2023-07-31T04:13:40;27.33;;;26.17;;
908;SDS011;441;51.192;6.788;2023-07-31T04:16:07;26.90;;;25.70;;
908;SDS011;441;51.192;6.788;2023-07-31T04:18:35;26.50;;;25.30;;
908;SDS011;441;51.192;6.788;2023-07-31T04:21:02;27.47;;;26.37;;
908;SDS011;441;51.192;6.788;2023-07-31T04:23:29;28.20;;;26.97;;
908;SDS011;441;51.192;6.788;2023-07-31T04:25:56;27.80;;;26.50;;
908;SDS011;441;51.192;6.788;2023-07-31T04:28:23;27.37;;;25.97;;
908;SDS011;441;51.192;6.788;2023-07-31T04:30:51;27.23;;;26.13;;
908;SDS011;441;51.192;6.788;2023-07-31T04:33:18;26.70;;;25.70;;
908;SDS011;441;51.192;6.788;2023-07-31T04:35:49;27.77;;;26.37;;
908;SDS011;441;51.192;6.788;2023-07-31T04:38:18;27.17;;;25.40;;
908;SDS011;441;51.192;6.788;2023-07-31T04:40:45;26.60;;;25.40;;
908;SDS011;441;51.192;6.788;2023-07-31T04:43:12;28.20;;;26.80;;
908;SDS011;441;51.192;6.788;2023-07-31T04:45:38;25.97;;;24.87;;
908;SDS011;441;51.192;6.788;2023-07-31T04:48:05;27.37;;;26.13;;
908;SDS011;441;51.192;6.788;2023-07-31T04:50:32;27.20;;;26.10;;
908;SDS011;441;51.192;6.788;2023-07-31T04:53:00;26.97;;;25.60;;
908;SDS011;441;51.192;6.788;2023-07-31T04:55:27;26.60;;;25.50;;
908;SDS011;441;51.192;6.788;2023-07-31T04:57:54;26.80;;;25.60;;
908;SDS011;441;51.192;6.788;2023-07-31T05:00:21;24.70;;;23.70;;
908;SDS011;441;51.192;6.788;2023-07-31T05:02:48;37.40;;;36.00;;
908;SDS011;441;51.192;6.788;2023-07-31T05:05:15;35.73;;;34.40;;
908;SDS011;441;51.192;6.788;2023-07-31T05:07:42;38.33;;;36.93;;
908;SDS011;441;51.192;6.788;2023-07-31T05:10:10;36.80;;;34.90;;
908;SDS011;441;51.192;6.788;2023-07-31T05:12:37;35.80;;;34.37;;
908;SDS011;441;51.192;6.788;2023-07-31T05:15:06;36.77;;;35.27;;
908;SDS011;441;51.192;6.788;2023-07-31T05:17:33;38.43;;;36.93;;
908;SDS011;441;51.192;6.788;2023-07-31T05:20:00;37.00;;;35.57;;
908;SDS011;441;51.192;6.788;2023-07-31T05:22:27;39.43;;;37.60;;
908;SDS011;441;51.192;6.788;2023-07-31T05:24:54;36.93;;;35.53;;
908;SDS011;441;51.192;6.788;2023-07-31T05:29:54;38.80;;;37.20;;
908;SDS011;441;51.192;6.788;2023-07-31T05:32:21;37.83;;;36.30;;
908;SDS011;441;51.192;6.788;2023-07-31T05:34:50;38.07;;;36.67;;
908;SDS011;441;51.192;6.788;2023-07-31T05:37:18;39.80;;;38.00;;
908;SDS011;441;51.192;6.788;2023-07-31T05:39:45;40.43;;;38.93;;
908;SDS011;441;51.192;6.788;2023-07-31T05:42:12;38.90;;;37.20;;
908;SDS011;441;51.192;6.788;2023-07-31T05:44:41;39.17;;;37.67;;
908;SDS011;441;51.192;6.788;2023-07-31T05:47:10;40.30;;;38.60;;
908;SDS011;441;51.192;6.788;2023-07-31T05:49:37;41.87;;;40.17;;
908;SDS011;441;51.192;6.788;2023-07-31T05:52:04;42.00;;;40.00;;
908;SDS011;441;51.192;6.788;2023-07-31T05:54:31;40.87;;;39.47;;
908;SDS011;441;51.192;6.788;2023-07-31T05:56:59;41.60;;;40.10;;
908;SDS011;441;51.192;6.788;2023-07-31T05:59:25;41.33;;;39.50;;
908;SDS011;441;51.192;6.788;2023-07-31T06:01:52;43.37;;;41.20;;
908;SDS011;441;51.192;6.788;2023-07-31T06:04:21;42.20;;;40.60;;
908;SDS011;441;51.192;6.788;2023-07-31T06:06:50;43.33;;;41.50;;
908;SDS011;441;51.192;6.788;2023-07-31T06:09:17;41.60;;;40.00;;
908;SDS011;441;51.192;6.788;2023-07-31T06:11:45;42.43;;;40.83;;
908;SDS011;441;51.192;6.788;2023-07-31T06:14:12;42.40;;;40.83;;
908;SDS011;441;51.192;6.788;2023-07-31T06:16:39;41.40;;;39.90;;
908;SDS011;441;51.192;6.788;2023-07-31T06:19:06;42.60;;;41.00;;
908;SDS011;441;51.192;6.788;2023-07-31T06:21:34;41.23;;;39.63;;
908;SDS011;441;51.192;6.788;2023-07-31T06:24:02;42.70;;;41.07;;
908;SDS011;441;51.192;6.788;2023-07-31T06:26:29;44.20;;;42.20;;
908;SDS011;441;51.192;6.788;2023-07-31T06:28:56;42.77;;;41.00;;
908;SDS011;441;51.192;6.788;2023-07-31T06:31:23;39.83;;;38.30;;
908;SDS011;441;51.192;6.788;2023-07-31T06:33:50;41.90;;;40.10;;
908;SDS011;441;51.192;6.788;2023-07-31T06:36:17;41.27;;;39.57;;
908;SDS011;441;51.192;6.788;2023-07-31T06:50:07;44.90;;;43.20;;
908;SDS011;441;51.192;6.788;2023-07-31T06:52:34;42.20;;;40.30;;
908;SDS011;441;51.192;6.788;2023-07-31T06:55:02;41.90;;;40.30;;
908;SDS011;441;51.192;6.788;2023-07-31T06:57:29;44.70;;;42.90;;
908;SDS011;441;51.192;6.788;2023-07-31T06:59:56;42.57;;;40.87;;
908;SDS011;441;51.192;6.788;2023-07-31T07:02:23;41.07;;;39.27;;
908;SDS011;441;51.192;6.788;2023-07-31T07:04:50;42.33;;;40.63;;
908;SDS011;441;51.192;6.788;2023-07-31T07:07:19;42.67;;;41.00;;
908;SDS011;441;51.192;6.788;2023-07-31T07:09:45;42.77;;;41.13;;
908;SDS011;441;51.192;6.788;2023-07-31T07:12:12;42.90;;;41.30;;
908;SDS011;441;51.192;6.788;2023-07-31T07:14:39;44.07;;;42.37;;
908;SDS011;441;51.192;6.788;2023-07-31T07:17:06;42.73;;;40.93;;
908;SDS011;441;51.192;6.788;2023-07-31T07:19:33;40.90;;;39.40;;
908;SDS011;441;51.192;6.788;2023-07-31T07:22:00;41.53;;;39.90;;
908;SDS011;441;51.192;6.788;2023-07-31T07:24:28;44.23;;;42.47;;
908;SDS011;441;51.192;6.788;2023-07-31T07:26:55;44.60;;;42.50;;
908;SDS011;441;51.192;6.788;2023-07-31T07:29:22;41.47;;;39.67;;
908;SDS011;441;51.192;6.788;2023-07-31T07:31:49;42.77;;;41.20;;
908;SDS011;441;51.192;6.788;2023-07-31T07:34:16;41.43;;;39.80;;
908;SDS011;441;51.192;6.788;2023-07-31T07:36:44;42.23;;;40.40;;
908;SDS011;441;51.192;6.788;2023-07-31T07:39:10;42.97;;;41.20;;
908;SDS011;441;51.192;6.788;2023-07-31T07:41:39;45.23;;;43.23;;
908;SDS011;441;51.192;6.788;2023-07-31T07:44:07;41.90;;;40.00;;
908;SDS011;441;51.192;6.788;2023-07-31T07:46:34;42.77;;;41.17;;
908;SDS011;441;51.192;6.788;2023-07-31T07:49:01;39.60;;;38.10;;
908;SDS011;441;51.192;6.788;2023-07-31T07:51:28;40.13;;;38.63;;
908;SDS011;441;51.192;6.788;2023-07-31T07:53:56;40.33;;;38.53;;
908;SDS011;441;51.192;6.788;2023-07-31T07:56:23;41.00;;;39.40;;
908;SDS011;441;51.192;6.788;2023-07-31T07:58:53;39.70;;;38.10;;
908;SDS011;441;51.192;6.788;2023-07-31T08:01:20;40.33;;;38.77;;
908;SDS011;441;51.192;6.788;2023-07-31T08:03:47;39.30;;;37.90;;
908;SDS011;441;51.192;6.788;2023-07-31T08:06:14;39.80;;;38.27;;
908;SDS011;441;51.192;6.788;2023-07-31T08:08:41;40.90;;;39.40;;
908;SDS011;441;51.192;6.788;2023-07-31T08:11:08;41.40;;;39.80;;
908;SDS011;441;51.192;6.788;2023-07-31T08:13:35;40.40;;;38.83;;
908;SDS011;441;51.192;6.788;2023-07-31T08:16:04;41.33;;;39.83;;
908;SDS011;441;51.192;6.788;2023-07-31T08:18:31;41.33;;;39.57;;
908;SDS011;441;51.192;6.788;2023-07-31T08:20:58;41.40;;;39.63;;
908;SDS011;441;51.192;6.788;2023-07-31T08:23:25;39.20;;;37.80;;
908;SDS011;441;51.192;6.788;2023-07-31T08:25:52;39.13;;;37.70;;
908;SDS011;441;51.192;6.788;2023-07-31T08:28:19;41.03;;;39.53;;
908;SDS011;441;51.192;6.788;2023-07-31T08:30:46;40.27;;;38.77;;
908;SDS011;441;51.192;6.788;2023-07-31T08:33:14;39.70;;;38.30;;
908;SDS011;441;51.192;6.788;2023-07-31T08:35:41;40.10;;;38.60;;
908;SDS011;441;51.192;6.788;2023-07-31T08:38:08;41.30;;;39.80;;
908;SDS011;441;51.192;6.788;2023-07-31T08:40:35;40.03;;;38.33;;
908;SDS011;441;51.192;6.788;2023-07-31T08:43:03;40.30;;;38.83;;
908;SDS011;441;51.192;6.788;2023-07-31T08:45:30;40.57;;;39.17;;
908;SDS011;441;51.192;6.788;2023-07-31T08:47:58;38.47;;;37.07;;
908;SDS011;441;51.192;6.788;2023-07-31T08:50:26;39.80;;;38.20;;
908;SDS011;441;51.192;6.788;2023-07-31T08:52:53;41.47;;;39.87;;
908;SDS011;441;51.192;6.788;2023-07-31T08:55:20;40.80;;;39.30;;
908;SDS011;441;51.192;6.788;2023-07-31T08:57:48;40.50;;;39.00;;
908;SDS011;441;51.192;6.788;2023-07-31T09:00:18;40.70;;;39.20;;
908;SDS011;441;51.192;6.788;2023-07-31T09:02:48;42.17;;;40.67;;
908;SDS011;441;51.192;6.788;2023-07-31T09:05:20;39.93;;;38.43;;
908;SDS011;441;51.192;6.788;2023-07-31T09:07:49;40.00;;;38.50;;
908;SDS011;441;51.192;6.788;2023-07-31T09:10:17;41.50;;;39.90;;
908;SDS011;441;51.192;6.788;2023-07-31T09:12:44;40.70;;;39.10;;
908;SDS011;441;51.192;6.788;2023-07-31T09:15:11;40.60;;;39.10;;
908;SDS011;441;51.192;6.788;2023-07-31T09:17:38;40.40;;;38.73;;
908;SDS011;441;51.192;6.788;2023-07-31T09:20:14;39.70;;;38.10;;
908;SDS011;441;51.192;6.788;2023-07-31T09:22:42;41.83;;;39.67;;
908;SDS011;441;51.192;6.788;2023-07-31T09:25:15;41.17;;;39.57;;
908;SDS011;441;51.192;6.788;2023-07-31T09:27:46;41.60;;;40.00;;
908;SDS011;441;51.192;6.788;2023-07-31T09:30:14;39.93;;;38.43;;
908;SDS011;441;51.192;6.788;2023-07-31T09:32:42;39.03;;;37.63;;
908;SDS011;441;51.192;6.788;2023-07-31T09:35:19;38.30;;;36.80;;
908;SDS011;441;51.192;6.788;2023-07-31T09:37:50;39.53;;;37.93;;
908;SDS011;441;51.192;6.788;2023-07-31T09:40:29;40.60;;;39.03;;
908;SDS011;441;51.192;6.788;2023-07-31T09:42:57;40.73;;;39.13;;
908;SDS011;441;51.192;6.788;2023-07-31T09:45:25;40.23;;;38.57;;
908;SDS011;441;51.192;6.788;2023-07-31T09:47:53;38.57;;;37.27;;
908;SDS011;441;51.192;6.788;2023-07-31T09:50:20;38.13;;;36.83;;
908;SDS011;441;51.192;6.788;2023-07-31T09:52:48;39.60;;;38.10;;
908;SDS011;441;51.192;6.788;2023-07-31T09:55:15;40.20;;;38.40;;
908;SDS011;441;51.192;6.788;2023-07-31T09:57:45;38.53;;;37.03;;
908;SDS011;441;51.192;6.788;2023-07-31T10:00:14;40.10;;;38.63;;
908;SDS011;441;51.192;6.788;2023-07-31T10:02:43;38.57;;;36.97;;
908;SDS011;441;51.192;6.788;2023-07-31T10:05:12;39.00;;;37.40;;
908;SDS011;441;51.192;6.788;2023-07-31T10:07:40;40.00;;;38.30;;
908;SDS011;441;51.192;6.788;2023-07-31T10:10:09;39.20;;;37.60;;
908;SDS011;441;51.192;6.788;2023-07-31T10:12:36;39.43;;;37.80;;
908;SDS011;441;51.192;6.788;2023-07-31T10:15:06;39.07;;;37.60;;
908;SDS011;441;51.192;6.788;2023-07-31T10:17:34;38.83;;;37.43;;
908;SDS011;441;51.192;6.788;2023-07-31T10:20:02;37.63;;;36.03;;
908;SDS011;441;51.192;6.788;2023-07-31T10:22:30;38.63;;;36.97;;
908;SDS011;441;51.192;6.788;2023-07-31T10:24:58;38.97;;;37.50;;
908;SDS011;441;51.192;6.788;2023-07-31T10:27:26;40.40;;;38.80;;
908;SDS011;441;51.192;6.788;2023-07-31T10:29:54;38.83;;;37.43;;
908;SDS011;441;51.192;6.788;2023-07-31T10:32:25;40.30;;;38.70;;
908;SDS011;441;51.192;6.788;2023-07-31T10:34:53;40.40;;;38.87;;
908;SDS011;441;51.192;6.788;2023-07-31T10:37:25;39.30;;;37.80;;
908;SDS011;441;51.192;6.788;2023-07-31T10:40:00;39.83;;;38.20;;
908;SDS011;441;51.192;6.788;2023-07-31T10:42:29;41.97;;;40.47;;
908;SDS011;441;51.192;6.788;2023-07-31T10:44:59;38.77;;;37.37;;
908;SDS011;441;51.192;6.788;2023-07-31T10:47:28;40.20;;;38.43;;
908;SDS011;441;51.192;6.788;2023-07-31T10:50:11;39.80;;;38.30;;
908;SDS011;441;51.192;6.788;2023-07-31T10:52:48;39.30;;;37.70;;
908;SDS011;441;51.192;6.788;2023-07-31T10:55:23;36.42;;;35.03;;
908;SDS011;441;51.192;6.788;2023-07-31T10:58:00;41.00;;;39.50;;
908;SDS011;441;51.192;6.788;2023-07-31T11:00:33;40.97;;;39.23;;
908;SDS011;441;51.192;6.788;2023-07-31T11:03:02;39.60;;;37.90;;
908;SDS011;441;51.192;6.788;2023-07-31T11:05:43;41.00;;;39.40;;
908;SDS011;441;51.192;6.788;2023-07-31T11:08:12;40.27;;;38.67;;
908;SDS011;441;51.192;6.788;2023-07-31T11:10:39;41.80;;;40.20;;
908;SDS011;441;51.192;6.788;2023-07-31T11:13:06;39.90;;;38.40;;
908;SDS011;441;51.192;6.788;2023-07-31T11:15:33;40.93;;;39.40;;
908;SDS011;441;51.192;6.788;2023-07-31T11:18:02;40.40;;;38.80;;
908;SDS011;441;51.192;6.788;2023-07-31T11:20:30;41.77;;;40.17;;
908;SDS011;441;51.192;6.788;2023-07-31T11:22:58;40.87;;;39.33;;
908;SDS011;441;51.192;6.788;2023-07-31T11:25:28;39.83;;;38.30;;
908;SDS011;441;51.192;6.788;2023-07-31T11:27:55;40.90;;;39.40;;
908;SDS011;441;51.192;6.788;2023-07-31T11:30:22;41.90;;;40.23;;
908;SDS011;441;51.192;6.788;2023-07-31T11:32:50;39.40;;;37.80;;
908;SDS011;441;51.192;6.788;2023-07-31T11:35:18;40.77;;;39.33;;
908;SDS011;441;51.192;6.788;2023-07-31T11:37:45;42.30;;;40.70;;
908;SDS011;441;51.192;6.788;2023-07-31T11:40:13;41.37;;;39.77;;
908;SDS011;441;51.192;6.788;2023-07-31T11:42:41;41.57;;;40.07;;
908;SDS011;441;51.192;6.788;2023-07-31T11:45:08;40.00;;;38.60;;
908;SDS011;441;51.192;6.788;2023-07-31T11:47:35;41.07;;;39.57;;
908;SDS011;441;51.192;6.788;2023-07-31T11:50:04;41.60;;;40.03;;
908;SDS011;441;51.192;6.788;2023-07-31T11:52:35;39.57;;;38.17;;
908;SDS011;441;51.192;6.788;2023-07-31T11:55:05;39.83;;;38.33;;
908;SDS011;441;51.192;6.788;2023-07-31T11:57:36;42.83;;;41.33;;
908;SDS011;441;51.192;6.788;2023-07-31T12:00:05;40.30;;;38.60;;
908;SDS011;441;51.192;6.788;2023-07-31T12:02:36;40.20;;;38.80;;
908;SDS011;441;51.192;6.788;2023-07-31T12:05:04;40.13;;;38.73;;
908;SDS011;441;51.192;6.788;2023-07-31T12:07:46;40.50;;;39.10;;
908;SDS011;441;51.192;6.788;2023-07-31T12:10:24;40.23;;;38.73;;
908;SDS011;441;51.192;6.788;2023-07-31T12:12:58;38.90;;;37.50;;
908;SDS011;441;51.192;6.788;2023-07-31T12:15:31;39.53;;;38.10;;
908;SDS011;441;51.192;6.788;2023-07-31T12:18:00;40.07;;;38.67;;
908;SDS011;441;51.192;6.788;2023-07-31T12:20:29;40.70;;;39.30;;
908;SDS011;441;51.192;6.788;2023-07-31T12:22:58;39.70;;;38.20;;
908;SDS011;441;51.192;6.788;2023-07-31T12:25:28;39.00;;;37.60;;
908;SDS011;441;51.192;6.788;2023-07-31T12:28:03;39.63;;;38.17;;
908;SDS011;441;51.192;6.788;2023-07-31T12:30:32;39.10;;;37.70;;
908;SDS011;441;51.192;6.788;2023-07-31T12:33:03;39.13;;;37.83;;
908;SDS011;441;51.192;6.788;2023-07-31T12:35:34;40.33;;;38.77;;
908;SDS011;441;51.192;6.788;2023-07-31T12:38:04;41.83;;;40.23;;
908;SDS011;441;51.192;6.788;2023-07-31T12:40:31;39.37;;;37.97;;
908;SDS011;441;51.192;6.788;2023-07-31T12:43:00;40.93;;;39.53;;
908;SDS011;441;51.192;6.788;2023-07-31T12:45:28;41.60;;;39.80;;
908;SDS011;441;51.192;6.788;2023-07-31T12:47:55;39.53;;;38.23;;
908;SDS011;441;51.192;6.788;2023-07-31T12:50:22;40.90;;;39.50;;
908;SDS011;441;51.192;6.788;2023-07-31T12:52:50;39.93;;;38.50;;
908;SDS011;441;51.192;6.788;2023-07-31T12:55:19;39.60;;;38.10;;
908;SDS011;441;51.192;6.788;2023-07-31T12:57:46;40.17;;;38.67;;
908;SDS011;441;51.192;6.788;2023-07-31T13:00:13;42.03;;;40.53;;
908;SDS011;441;51.192;6.788;2023-07-31T13:02:40;40.80;;;39.33;;
908;SDS011;441;51.192;6.788;2023-07-31T13:05:08;39.80;;;38.40;;
908;SDS011;441;51.192;6.788;2023-07-31T13:07:35;40.80;;;39.40;;
908;SDS011;441;51.192;6.788;2023-07-31T13:10:02;39.10;;;37.70;;
908;SDS011;441;51.192;6.788;2023-07-31T13:12:30;40.77;;;39.27;;
908;SDS011;441;51.192;6.788;2023-07-31T13:14:57;40.17;;;38.70;;
908;SDS011;441;51.192;6.788;2023-07-31T13:17:24;40.20;;;38.80;;
908;SDS011;441;51.192;6.788;2023-07-31T13:19:51;41.23;;;39.73;;
908;SDS011;441;51.192;6.788;2023-07-31T13:22:18;40.93;;;39.40;;
908;SDS011;441;51.192;6.788;2023-07-31T13:24:45;41.40;;;39.90;;
908;SDS011;441;51.192;6.788;2023-07-31T13:27:12;40.20;;;38.70;;
908;SDS011;441;51.192;6.788;2023-07-31T13:29:43;40.80;;;39.30;;
908;SDS011;441;51.192;6.788;2023-07-31T13:32:10;41.47;;;39.87;;
908;SDS011;441;51.192;6.788;2023-07-31T13:34:37;40.40;;;39.00;;
908;SDS011;441;51.192;6.788;2023-07-31T13:37:04;41.00;;;39.57;;
908;SDS011;441;51.192;6.788;2023-07-31T13:39:32;42.43;;;40.63;;
908;SDS011;441;51.192;6.788;2023-07-31T13:41:59;39.77;;;38.37;;
908;SDS011;441;51.192;6.788;2023-07-31T13:44:26;42.00;;;40.30;;
908;SDS011;441;51.192;6.788;2023-07-31T13:46:54;42.77;;;41.20;;
908;SDS011;441;51.192;6.788;2023-07-31T13:49:21;41.60;;;40.10;;
908;SDS011;441;51.192;6.788;2023-07-31T13:51:48;41.23;;;39.63;;
908;SDS011;441;51.192;6.788;2023-07-31T13:54:15;41.07;;;39.60;;
908;SDS011;441;51.192;6.788;2023-07-31T13:56:42;42.37;;;40.77;;
908;SDS011;441;51.192;6.788;2023-07-31T13:59:09;42.17;;;40.57;;
908;SDS011;441;51.192;6.788;2023-07-31T14:01:36;41.00;;;39.60;;
908;SDS011;441;51.192;6.788;2023-07-31T14:04:05;41.60;;;40.10;;
908;SDS011;441;51.192;6.788;2023-07-31T14:06:32;41.73;;;39.77;;
908;SDS011;441;51.192;6.788;2023-07-31T14:08:59;39.80;;;38.40;;
908;SDS011;441;51.192;6.788;2023-07-31T14:11:26;41.97;;;40.37;;
908;SDS011;441;51.192;6.788;2023-07-31T14:13:53;40.30;;;38.70;;
908;SDS011;441;51.192;6.788;2023-07-31T14:16:19;42.93;;;41.33;;
908;SDS011;441;51.192;6.788;2023-07-31T14:18:47;43.10;;;41.30;;
908;SDS011;441;51.192;6.788;2023-07-31T14:21:15;42.43;;;40.83;;
908;SDS011;441;51.192;6.788;2023-07-31T14:23:44;41.63;;;40.03;;
908;SDS011;441;51.192;6.788;2023-07-31T14:26:11;40.17;;;38.67;;
908;SDS011;441;51.192;6.788;2023-07-31T14:28:38;41.73;;;40.20;;
908;SDS011;441;51.192;6.788;2023-07-31T14:31:05;40.23;;;38.67;;
908;SDS011;441;51.192;6.788;2023-07-31T14:33:32;41.20;;;39.60;;
908;SDS011;441;51.192;6.788;2023-07-31T14:35:59;40.83;;;39.20;;
908;SDS011;441;51.192;6.788;2023-07-31T14:38:27;41.97;;;40.47;;
908;SDS011;441;51.192;6.788;2023-07-31T14:40:54;39.50;;;37.90;;
908;SDS011;441;51.192;6.788;2023-07-31T14:43:21;41.37;;;39.87;;
908;SDS011;441;51.192;6.788;2023-07-31T14:45:47;40.77;;;39.23;;
908;SDS011;441;51.192;6.788;2023-07-31T14:48:14;42.67;;;41.10;;
908;SDS011;441;51.192;6.788;2023-07-31T14:50:41;39.97;;;38.40;;
908;SDS011;441;51.192;6.788;2023-07-31T14:53:08;41.23;;;39.63;;
908;SDS011;441;51.192;6.788;2023-07-31T14:55:36;41.43;;;39.83;;
908;SDS011;441;51.192;6.788;2023-07-31T14:58:03;43.50;;;41.90;;
908;SDS011;441;51.192;6.788;2023-07-31T15:00:30;41.83;;;40.23;;
908;SDS011;441;51.192;6.788;2023-07-31T15:02:57;43.40;;;41.80;;
908;SDS011;441;51.192;6.788;2023-07-31T15:05:24;42.10;;;40.60;;
908;SDS011;441;51.192;6.788;2023-07-31T15:07:51;44.03;;;42.33;;
908;SDS011;441;51.192;6.788;2023-07-31T15:10:17;41.73;;;40.20;;
908;SDS011;441;51.192;6.788;2023-07-31T15:12:46;42.07;;;40.47;;
908;SDS011;441;51.192;6.788;2023-07-31T15:15:13;41.80;;;40.10;;
908;SDS011;441;51.192;6.788;2023-07-31T15:17:41;44.37;;;42.67;;
908;SDS011;441;51.192;6.788;2023-07-31T15:20:08;42.40;;;40.80;;
908;SDS011;441;51.192;6.788;2023-07-31T15:22:37;42.83;;;41.13;;
908;SDS011;441;51.192;6.788;2023-07-31T15:25:04;43.27;;;41.63;;
908;SDS011;441;51.192;6.788;2023-07-31T15:27:31;42.80;;;41.30;;
908;SDS011;441;51.192;6.788;2023-07-31T15:30:00;44.13;;;42.53;;
908;SDS011;441;51.192;6.788;2023-07-31T15:32:28;41.60;;;40.00;;
908;SDS011;441;51.192;6.788;2023-07-31T15:34:54;41.30;;;39.80;;